KCLK/CLK METAR and TAF weather

Enter ICAO airport designator
Station Type Date Time Source
KCLK METAR 2019/11/18 11:55 UTC NOAA

KCLK 181155Z AUTO 17004KT 10SM CLR 02/M01 A2994 RMK AO2


Station Type Date Time Source
KCLK Decoded METAR 2019/11/18 11:55 UTC NOAA

Clinton, Clinton Regional Airport, OK, United States (KCLK) 35-32-17N 098-55-17W
Nov 18, 2019 - 06:55 AM EST / 2019.11.18 1155 UTC
Wind: from the S (170 degrees) at 5 MPH (4 KT):0
Visibility: 10 mile(s):0
Sky conditions: clear
Temperature: 35 F (2 C)
Windchill: 30 F (-1 C):1
Dew Point: 30 F (-1 C)
Relative Humidity: 80%
Pressure (altimeter): 29.94 in. Hg (1013 hPa)
ob: KCLK 181155Z AUTO 17004KT 10SM CLR 02/M01 A2994 RMK AO2
cycle: 12

Station Type Date Time Source
KCLK TAF UTC NOAA

Error!

Example: see airport list